Terminal Aerodrome Forecast
Issued by NWS

Home | Current Version | Previous Version | Text Only | Print | Product List | Glossary On
Versions: 1 2 3 4 5 6 7 8 9 10 11 12
979
FTUS43 KJKL 230541
TAFSME
TAF
KSME 230541Z 2306/2406 24007KT P6SM FEW150
     FM231400 25009G18KT P6SM VCTS SCT040CB BKN100
     FM232300 26006KT P6SM BKN150=

USA.gov is the U.S. government's official web portal to all federal, state and local government web resources and services.